Time;durP1;ratioP1;P1;durP2;ratioP2;P2;SDS_P1;SDS_P2;PMS_P1;PMS_P2;Temp;Humidity;BMP_temperature;BMP_pressure;BME280_temperature;BME280_humidity;BME280_pressure;Samples;Min_cycle;Max_cycle;Signal;HPM_P1;HPM_P2
2023/01/22 00:01:11;;;;;;;;;;;5.10;99.90;;;;;;5089302;28;19917;-66
2023/01/22 00:03:37;;;;;;;;;;;5.10;99.90;;;;;;5091239;28;19920;-66
2023/01/22 00:06:03;;;;;;;;;;;5.00;99.90;;;;;;5085477;28;19916;-66
2023/01/22 00:08:29;;;;;;;;;;;5.00;99.90;;;;;;5062743;28;20365;-65
2023/01/22 00:10:59;;;;;;;;;;;5.00;99.90;;;;;;5076311;28;19916;-66
2023/01/22 00:13:26;;;;;;;;;;;5.00;99.90;;;;;;5097030;28;19916;-67
2023/01/22 00:15:52;;;;;;;;;;;4.90;99.90;;;;;;5097138;28;19912;-67
2023/01/22 00:18:18;;;;;;;;;;;4.90;99.90;;;;;;5070790;28;19919;-65
2023/01/22 00:20:48;;;;;;;;;;;4.90;99.90;;;;;;5070097;28;19916;-66
2023/01/22 00:23:13;;;;;;;;;;;4.80;99.90;;;;;;5092578;28;19913;-65
2023/01/22 00:25:39;;;;;;;;;;;4.90;99.90;;;;;;5071648;28;20314;-66
2023/01/22 00:28:05;;;;;;;;;;;4.90;99.90;;;;;;5077236;28;20362;-65
2023/01/22 00:30:30;;;;;;;;;;;4.90;99.90;;;;;;5090752;28;20004;-65
2023/01/22 00:32:56;;;;;;;;;;;4.90;99.90;;;;;;5066893;28;19951;-66
2023/01/22 00:35:22;;;;;;;;;;;4.80;99.90;;;;;;5095278;28;20313;-65
2023/01/22 00:37:48;;;;;;;;;;;4.90;99.90;;;;;;5091420;28;19915;-63
2023/01/22 00:40:14;;;;;;;;;;;4.90;99.90;;;;;;5103127;28;19912;-66
2023/01/22 00:42:40;;;;;;;;;;;4.90;99.90;;;;;;5065874;28;19970;-65
2023/01/22 00:45:06;;;;;;;;;;;4.90;99.90;;;;;;5097683;28;20007;-65
2023/01/22 00:47:34;;;;;;;;;;;4.90;99.90;;;;;;5087682;28;19912;-65
2023/01/22 00:50:02;;;;;;;;;;;4.90;99.90;;;;;;5088682;28;19916;-65
2023/01/22 00:52:28;;;;;;;;;;;4.90;99.90;;;;;;5079300;28;19912;-66
2023/01/22 00:54:53;;;;;;;;;;;4.90;99.90;;;;;;5086433;28;19920;-65
2023/01/22 00:57:20;;;;;;;;;;;4.90;99.90;;;;;;5086683;28;19958;-65
2023/01/22 00:59:51;;;;;;;;;;;4.90;99.90;;;;;;5071862;28;19958;-65
2023/01/22 01:02:17;;;;;;;;;;;4.90;99.90;;;;;;5089977;28;19951;-67
2023/01/22 01:04:44;;;;;;;;;;;4.90;99.90;;;;;;5085601;28;19966;-65
2023/01/22 01:07:12;;;;;;;;;;;4.90;99.90;;;;;;5088745;28;20387;-65
2023/01/22 01:09:38;;;;;;;;;;;5.00;99.90;;;;;;5086855;28;19916;-65
2023/01/22 01:12:04;;;;;;;;;;;5.00;99.90;;;;;;5086881;28;20384;-65
2023/01/22 01:14:29;;;;;;;;;;;5.00;99.90;;;;;;5088342;28;19934;-65
2023/01/22 01:16:55;;;;;;;;;;;5.10;99.90;;;;;;5093209;28;19935;-65
2023/01/22 01:19:20;;;;;;;;;;;5.10;99.90;;;;;;5076733;28;19919;-66
2023/01/22 01:21:46;;;;;;;;;;;5.10;99.90;;;;;;5091192;28;19920;-67
2023/01/22 01:24:12;;;;;;;;;;;5.00;99.90;;;;;;5095371;28;19912;-66
2023/01/22 01:26:38;;;;;;;;;;;5.00;99.90;;;;;;5088280;28;19912;-65
2023/01/22 01:29:05;;;;;;;;;;;5.00;99.90;;;;;;5089605;28;19907;-65
2023/01/22 01:31:30;;;;;;;;;;;5.00;99.90;;;;;;5088052;28;19923;-64
2023/01/22 01:33:57;;;;;;;;;;;4.90;99.90;;;;;;5090393;28;19912;-65
2023/01/22 01:36:23;;;;;;;;;;;4.90;99.90;;;;;;5086677;28;19978;-65
2023/01/22 01:38:50;;;;;;;;;;;4.80;99.90;;;;;;5090726;28;19965;-64
2023/01/22 01:41:19;;;;;;;;;;;4.80;99.90;;;;;;5093243;28;19931;-64
2023/01/22 01:43:45;;;;;;;;;;;4.80;99.90;;;;;;5089138;28;19961;-65
2023/01/22 01:46:20;;;;;;;;;;;4.80;99.90;;;;;;5089369;28;19976;-65
2023/01/22 01:48:51;;;;;;;;;;;4.80;99.90;;;;;;5070409;28;20457;-64
2023/01/22 01:51:43;;;;;;;;;;;4.80;99.90;;;;;;5067204;28;19980;-67
2023/01/22 01:54:10;;;;;;;;;;;4.70;99.90;;;;;;5083104;28;19912;-65
2023/01/22 01:56:38;;;;;;;;;;;4.70;99.90;;;;;;5089792;28;20269;-63
2023/01/22 01:59:06;;;;;;;;;;;4.70;99.90;;;;;;5088792;28;19975;-63
2023/01/22 02:01:32;;;;;;;;;;;4.70;99.90;;;;;;5087722;28;19912;-65
2023/01/22 02:03:58;;;;;;;;;;;4.70;99.90;;;;;;5071518;28;19915;-65
2023/01/22 02:06:23;;;;;;;;;;;4.70;99.90;;;;;;5091144;28;19923;-65
2023/01/22 02:08:49;;;;;;;;;;;4.70;99.90;;;;;;5089466;28;20378;-64
2023/01/22 02:11:16;;;;;;;;;;;4.70;99.90;;;;;;5084488;28;19931;-65
2023/01/22 02:13:44;;;;;;;;;;;4.70;99.90;;;;;;5089563;28;20401;-65
2023/01/22 02:16:10;;;;;;;;;;;4.70;99.90;;;;;;5069674;28;19982;-65
2023/01/22 02:18:36;;;;;;;;;;;4.70;99.90;;;;;;5067074;28;20333;-65
2023/01/22 02:21:02;;;;;;;;;;;4.70;99.90;;;;;;5087915;28;19919;-65
2023/01/22 02:23:29;;;;;;;;;;;4.80;99.90;;;;;;5089527;28;20280;-64
2023/01/22 02:25:55;;;;;;;;;;;4.80;99.90;;;;;;5091667;28;20310;-63
2023/01/22 02:28:21;;;;;;;;;;;4.80;99.90;;;;;;5091431;28;20266;-64
2023/01/22 02:30:47;;;;;;;;;;;4.80;99.90;;;;;;5090732;28;19952;-65
2023/01/22 02:33:13;;;;;;;;;;;4.80;99.90;;;;;;5072191;28;20396;-70
2023/01/22 02:35:38;;;;;;;;;;;4.80;99.90;;;;;;5088624;28;20274;-65
2023/01/22 02:38:04;;;;;;;;;;;4.80;99.90;;;;;;5070868;28;19909;-65
2023/01/22 02:40:30;;;;;;;;;;;4.90;99.90;;;;;;5082498;28;19920;-64
2023/01/22 02:42:56;;;;;;;;;;;4.90;99.90;;;;;;5087675;28;19911;-65
2023/01/22 02:45:22;;;;;;;;;;;5.00;99.90;;;;;;5087777;28;20011;-66
2023/01/22 02:47:48;;;;;;;;;;;5.00;99.90;;;;;;5065082;28;20365;-66
2023/01/22 02:50:14;;;;;;;;;;;5.00;99.90;;;;;;5065014;28;20444;-65
2023/01/22 02:52:40;;;;;;;;;;;5.00;99.90;;;;;;5070164;28;19956;-64
2023/01/22 02:55:05;;;;;;;;;;;5.00;99.90;;;;;;5062733;28;19912;-64
2023/01/22 02:57:31;;;;;;;;;;;5.10;99.90;;;;;;5099726;28;20021;-65
2023/01/22 02:59:57;;;;;;;;;;;5.00;99.90;;;;;;5086103;28;19940;-65
2023/01/22 03:02:23;;;;;;;;;;;5.00;99.90;;;;;;5066458;28;19913;-65
2023/01/22 03:04:49;;;;;;;;;;;5.00;99.90;;;;;;5079360;28;20369;-65
2023/01/22 03:07:16;;;;;;;;;;;5.00;99.90;;;;;;5093469;28;19984;-64
2023/01/22 03:09:42;;;;;;;;;;;5.00;99.90;;;;;;5074577;28;19919;-65
2023/01/22 03:12:08;;;;;;;;;;;5.00;99.90;;;;;;5113573;28;19912;-64
2023/01/22 03:22:47;;;;;;;;;;;5.00;99.90;;;;;;5090153;28;19923;-63
2023/01/22 03:25:12;;;;;;;;;;;5.00;99.90;;;;;;5094223;28;19912;-64
2023/01/22 03:28:07;;;;;;;;;;;4.90;99.90;;;;;;5090985;28;20046;-65
2023/01/22 03:30:23;;;;;;;;;;;5.00;99.90;;;;;;5084773;28;19924;-65
2023/01/22 03:32:49;;;;;;;;;;;4.90;99.90;;;;;;5077643;28;19931;-65
2023/01/22 03:35:15;;;;;;;;;;;4.90;99.90;;;;;;5072919;28;20010;-64
2023/01/22 03:37:40;;;;;;;;;;;4.80;99.90;;;;;;5082618;28;20347;-64
2023/01/22 03:40:06;;;;;;;;;;;4.80;99.90;;;;;;5084602;28;19999;-65
2023/01/22 03:42:32;;;;;;;;;;;4.80;99.90;;;;;;5062693;28;19916;-65
2023/01/22 03:44:57;;;;;;;;;;;4.80;99.90;;;;;;5086981;28;21376;-64
2023/01/22 03:47:23;;;;;;;;;;;4.80;99.90;;;;;;5076488;28;19999;-65
2023/01/22 03:49:48;;;;;;;;;;;4.80;99.90;;;;;;5081886;28;19915;-68
2023/01/22 03:52:14;;;;;;;;;;;4.80;99.90;;;;;;5072978;28;20030;-63
2023/01/22 03:54:39;;;;;;;;;;;4.80;99.90;;;;;;5103771;28;20110;-64
2023/01/22 03:57:05;;;;;;;;;;;4.80;99.90;;;;;;5095716;28;19955;-66
2023/01/22 03:59:31;;;;;;;;;;;4.80;99.90;;;;;;5088185;28;19912;-66
2023/01/22 04:01:56;;;;;;;;;;;4.80;99.90;;;;;;5089309;28;20508;-64
2023/01/22 04:04:27;;;;;;;;;;;4.80;99.90;;;;;;5097065;28;19912;-64
2023/01/22 04:06:54;;;;;;;;;;;4.80;99.90;;;;;;5093368;28;19939;-65
2023/01/22 04:09:20;;;;;;;;;;;4.70;99.90;;;;;;5077350;28;19912;-66
2023/01/22 04:11:45;;;;;;;;;;;4.80;99.90;;;;;;5083957;28;20418;-64
2023/01/22 04:14:11;;;;;;;;;;;4.70;99.90;;;;;;5063494;28;19921;-65
2023/01/22 04:16:37;;;;;;;;;;;4.80;99.90;;;;;;5086105;28;19979;-66
2023/01/22 04:19:03;;;;;;;;;;;4.80;99.90;;;;;;5079266;28;19928;-65
2023/01/22 04:21:29;;;;;;;;;;;4.80;99.90;;;;;;5097627;28;19921;-63
2023/01/22 04:23:55;;;;;;;;;;;4.80;99.90;;;;;;5080123;28;19923;-63
2023/01/22 04:26:21;;;;;;;;;;;4.80;99.90;;;;;;5080381;28;20026;-63
2023/01/22 04:28:46;;;;;;;;;;;4.80;99.90;;;;;;5097255;28;20019;-64
2023/01/22 04:31:12;;;;;;;;;;;4.80;99.90;;;;;;5089285;28;19916;-64
2023/01/22 04:33:37;;;;;;;;;;;4.80;99.90;;;;;;5075082;28;19927;-64
2023/01/22 04:36:03;;;;;;;;;;;4.80;99.90;;;;;;5078801;28;20033;-64
2023/01/22 04:38:29;;;;;;;;;;;4.80;99.90;;;;;;5096795;28;20012;-63
2023/01/22 04:40:54;;;;;;;;;;;4.90;99.90;;;;;;5075865;28;19919;-65
2023/01/22 04:43:20;;;;;;;;;;;4.90;99.90;;;;;;5105339;28;19924;-65
2023/01/22 04:45:47;;;;;;;;;;;4.80;99.90;;;;;;5091597;28;20019;-64
2023/01/22 04:48:13;;;;;;;;;;;4.90;99.90;;;;;;5070318;28;19912;-64
2023/01/22 04:50:39;;;;;;;;;;;4.90;99.90;;;;;;5080565;28;20446;-64
2023/01/22 04:53:04;;;;;;;;;;;4.90;99.90;;;;;;5068774;28;19912;-65
2023/01/22 04:55:30;;;;;;;;;;;5.00;99.90;;;;;;5085995;28;20295;-63
2023/01/22 04:57:56;;;;;;;;;;;5.00;99.90;;;;;;5063993;28;19912;-64
2023/01/22 05:00:22;;;;;;;;;;;5.00;99.90;;;;;;5084508;28;19913;-64
2023/01/22 05:02:48;;;;;;;;;;;5.00;99.90;;;;;;5087458;28;20006;-64
2023/01/22 05:05:14;;;;;;;;;;;5.00;99.90;;;;;;5092740;28;20060;-65
2023/01/22 05:07:39;;;;;;;;;;;5.00;99.90;;;;;;5089844;28;20554;-65
2023/01/22 05:10:05;;;;;;;;;;;5.00;99.90;;;;;;5068342;28;19970;-64
2023/01/22 05:12:33;;;;;;;;;;;5.10;99.90;;;;;;5072792;28;20313;-65
2023/01/22 05:14:59;;;;;;;;;;;5.10;99.90;;;;;;5066922;28;19912;-63
2023/01/22 05:17:24;;;;;;;;;;;5.10;99.90;;;;;;5085144;28;19991;-64
2023/01/22 05:19:50;;;;;;;;;;;5.20;99.90;;;;;;5085303;28;20520;-64
2023/01/22 05:22:15;;;;;;;;;;;5.20;99.90;;;;;;5066665;28;19912;-64
2023/01/22 05:24:41;;;;;;;;;;;5.20;99.90;;;;;;5071783;28;20377;-65
2023/01/22 05:27:07;;;;;;;;;;;5.20;99.90;;;;;;5080195;28;19920;-64
2023/01/22 05:29:32;;;;;;;;;;;5.30;99.90;;;;;;5090143;28;19911;-64
2023/01/22 05:31:58;;;;;;;;;;;5.30;99.90;;;;;;5062474;28;19967;-65
2023/01/22 05:34:24;;;;;;;;;;;5.30;99.90;;;;;;5087548;28;19974;-65
2023/01/22 05:36:50;;;;;;;;;;;5.30;99.90;;;;;;5078836;28;19933;-65
2023/01/22 05:39:16;;;;;;;;;;;5.30;99.90;;;;;;5069093;28;19988;-64
2023/01/22 05:41:41;;;;;;;;;;;5.40;99.90;;;;;;5080004;28;19918;-65
2023/01/22 05:44:09;;;;;;;;;;;5.40;99.90;;;;;;5090537;28;20454;-63
2023/01/22 05:46:35;;;;;;;;;;;5.40;99.90;;;;;;5080750;28;20408;-65
2023/01/22 05:49:01;;;;;;;;;;;5.40;99.90;;;;;;5066906;28;20073;-64
2023/01/22 05:51:26;;;;;;;;;;;5.30;99.90;;;;;;5093979;28;19919;-63
2023/01/22 05:53:52;;;;;;;;;;;5.40;99.90;;;;;;5089836;28;19912;-65
2023/01/22 05:56:17;;;;;;;;;;;5.40;99.90;;;;;;5086752;28;19999;-63
2023/01/22 05:58:43;;;;;;;;;;;5.30;99.90;;;;;;5084340;28;20262;-64
2023/01/22 06:01:08;;;;;;;;;;;5.30;99.90;;;;;;5059765;28;19927;-63
2023/01/22 06:03:34;;;;;;;;;;;5.30;99.90;;;;;;5088495;28;20069;-64
2023/01/22 06:06:01;;;;;;;;;;;5.20;99.90;;;;;;5061364;28;19920;-64
2023/01/22 06:08:27;;;;;;;;;;;5.30;99.90;;;;;;5097174;28;19916;-63
2023/01/22 06:11:02;;;;;;;;;;;5.20;99.90;;;;;;5093766;28;19919;-63
2023/01/22 06:13:28;;;;;;;;;;;5.30;99.90;;;;;;5086180;28;20344;-65
2023/01/22 06:15:53;;;;;;;;;;;5.20;99.90;;;;;;5100478;28;19996;-65
2023/01/22 06:18:20;;;;;;;;;;;5.20;99.90;;;;;;5080950;28;19911;-65
2023/01/22 06:20:46;;;;;;;;;;;5.20;99.90;;;;;;5059469;28;19912;-64
2023/01/22 06:23:12;;;;;;;;;;;5.30;99.90;;;;;;5083753;28;19918;-65
2023/01/22 06:25:37;;;;;;;;;;;5.30;99.90;;;;;;5076117;28;20003;-64
2023/01/22 06:28:03;;;;;;;;;;;5.30;99.90;;;;;;5086961;28;20289;-65
2023/01/22 06:30:28;;;;;;;;;;;5.30;99.90;;;;;;5091878;28;19959;-63
2023/01/22 06:32:54;;;;;;;;;;;5.30;99.90;;;;;;5082958;28;19936;-65
2023/01/22 06:35:19;;;;;;;;;;;5.30;99.90;;;;;;5090740;28;20580;-63
2023/01/22 06:37:46;;;;;;;;;;;5.30;99.90;;;;;;5103735;28;19912;-65
2023/01/22 06:40:11;;;;;;;;;;;5.40;99.90;;;;;;5079614;28;19927;-65
2023/01/22 06:42:37;;;;;;;;;;;5.30;99.90;;;;;;5079276;28;19919;-64
2023/01/22 06:45:03;;;;;;;;;;;5.30;99.90;;;;;;5073583;28;19912;-64
2023/01/22 06:47:28;;;;;;;;;;;5.40;99.90;;;;;;5081324;28;19974;-67
2023/01/22 06:49:54;;;;;;;;;;;5.40;99.90;;;;;;5071516;28;20015;-64
2023/01/22 06:52:19;;;;;;;;;;;5.40;99.90;;;;;;5089033;28;19916;-65
2023/01/22 06:54:45;;;;;;;;;;;5.40;99.90;;;;;;5068229;28;20002;-65
2023/01/22 06:57:10;;;;;;;;;;;5.40;99.90;;;;;;5081532;28;20289;-64
2023/01/22 06:59:36;;;;;;;;;;;5.40;99.90;;;;;;5086463;28;19927;-66
2023/01/22 07:02:02;;;;;;;;;;;5.40;99.90;;;;;;5068268;28;19939;-65
2023/01/22 07:04:27;;;;;;;;;;;5.40;99.90;;;;;;5094120;28;19955;-66
2023/01/22 07:06:53;;;;;;;;;;;5.40;99.90;;;;;;5091666;28;19916;-64
2023/01/22 07:09:18;;;;;;;;;;;5.40;99.90;;;;;;5085801;28;19981;-66
2023/01/22 07:11:44;;;;;;;;;;;5.40;99.90;;;;;;5090764;28;19916;-64
2023/01/22 07:14:10;;;;;;;;;;;5.50;99.90;;;;;;5083785;28;20053;-65
2023/01/22 07:16:35;;;;;;;;;;;5.50;99.90;;;;;;5086643;28;19920;-66
2023/01/22 07:19:01;;;;;;;;;;;5.50;99.90;;;;;;5082675;28;20358;-64
2023/01/22 07:21:27;;;;;;;;;;;5.50;99.90;;;;;;5094779;28;20041;-65
2023/01/22 07:23:53;;;;;;;;;;;5.50;99.90;;;;;;5095157;28;19916;-65
2023/01/22 07:26:18;;;;;;;;;;;5.50;99.90;;;;;;5062756;28;19916;-64
2023/01/22 07:28:44;;;;;;;;;;;5.60;99.90;;;;;;5089043;28;20015;-65
2023/01/22 07:31:10;;;;;;;;;;;5.60;99.90;;;;;;5072247;28;19924;-66
2023/01/22 07:33:36;;;;;;;;;;;5.50;99.90;;;;;;5092652;28;19911;-66
2023/01/22 07:36:02;;;;;;;;;;;5.60;99.90;;;;;;5100487;28;19912;-65
2023/01/22 07:38:29;;;;;;;;;;;5.60;99.90;;;;;;5090591;28;19922;-67
2023/01/22 07:41:04;;;;;;;;;;;5.60;99.90;;;;;;5067100;28;20057;-64
2023/01/22 07:43:31;;;;;;;;;;;5.60;99.90;;;;;;5079445;28;19920;-66
2023/01/22 07:45:59;;;;;;;;;;;5.60;99.90;;;;;;5091754;28;19991;-67
2023/01/22 07:48:24;;;;;;;;;;;5.60;99.90;;;;;;5091209;28;19944;-66
2023/01/22 07:50:50;;;;;;;;;;;5.60;99.90;;;;;;5086013;28;19987;-65
2023/01/22 07:53:16;;;;;;;;;;;5.70;99.90;;;;;;5098504;28;19916;-64
2023/01/22 07:55:41;;;;;;;;;;;5.70;99.90;;;;;;5097081;28;19911;-64
2023/01/22 07:58:07;;;;;;;;;;;5.70;99.90;;;;;;5070481;28;20317;-64
2023/01/22 08:00:34;;;;;;;;;;;5.80;99.90;;;;;;5093680;28;20002;-67
2023/01/22 08:03:00;;;;;;;;;;;5.80;99.90;;;;;;5089901;28;19919;-65
2023/01/22 08:05:25;;;;;;;;;;;5.80;99.90;;;;;;5096344;28;19919;-66
2023/01/22 08:07:51;;;;;;;;;;;5.80;99.90;;;;;;5094196;28;19969;-65
2023/01/22 08:10:17;;;;;;;;;;;5.80;99.90;;;;;;5078233;28;20710;-64
2023/01/22 08:12:43;;;;;;;;;;;5.90;99.90;;;;;;5092461;28;20381;-65
2023/01/22 08:15:09;;;;;;;;;;;5.90;99.90;;;;;;5076322;28;19965;-65
2023/01/22 08:17:35;;;;;;;;;;;5.90;99.90;;;;;;5078604;28;19958;-64
2023/01/22 08:20:01;;;;;;;;;;;6.00;99.90;;;;;;5083339;28;19952;-65
2023/01/22 08:22:26;;;;;;;;;;;6.00;99.90;;;;;;5085425;28;20362;-64
2023/01/22 08:24:52;;;;;;;;;;;6.00;99.90;;;;;;5081691;28;20453;-65
2023/01/22 08:27:19;;;;;;;;;;;6.00;99.90;;;;;;5068535;28;19912;-66
2023/01/22 08:29:44;;;;;;;;;;;6.00;99.90;;;;;;5069108;28;19957;-66
2023/01/22 08:32:10;;;;;;;;;;;6.00;99.90;;;;;;5084547;28;19923;-64
2023/01/22 08:34:35;;;;;;;;;;;6.00;99.90;;;;;;5094318;28;19916;-65
2023/01/22 08:37:01;;;;;;;;;;;6.00;99.90;;;;;;5082218;28;19919;-68
2023/01/22 08:39:26;;;;;;;;;;;6.00;99.90;;;;;;5072709;28;20300;-67
2023/01/22 08:41:56;;;;;;;;;;;6.00;99.90;;;;;;5102096;28;19999;-65
2023/01/22 08:44:22;;;;;;;;;;;6.00;99.90;;;;;;5086918;28;19916;-65
2023/01/22 08:46:48;;;;;;;;;;;5.90;99.90;;;;;;5101754;28;19970;-65
2023/01/22 08:49:13;;;;;;;;;;;6.00;99.90;;;;;;5086522;28;19912;-66
2023/01/22 08:51:39;;;;;;;;;;;6.00;99.90;;;;;;5066903;28;19920;-66
2023/01/22 08:54:05;;;;;;;;;;;6.00;99.90;;;;;;5097747;28;19912;-65
2023/01/22 08:56:30;;;;;;;;;;;6.00;99.90;;;;;;5085988;28;20047;-67
2023/01/22 08:58:58;;;;;;;;;;;6.00;99.90;;;;;;5085195;28;19951;-65
2023/01/22 09:01:24;;;;;;;;;;;5.90;99.90;;;;;;5084234;28;19916;-65
2023/01/22 09:03:50;;;;;;;;;;;5.90;99.90;;;;;;5093612;28;19911;-65
2023/01/22 09:06:15;;;;;;;;;;;5.80;99.90;;;;;;5068770;28;19963;-65
2023/01/22 09:08:41;;;;;;;;;;;5.90;99.90;;;;;;5091240;28;19912;-67
2023/01/22 09:11:07;;;;;;;;;;;5.80;99.90;;;;;;5086112;28;19920;-67
2023/01/22 09:13:33;;;;;;;;;;;5.80;99.90;;;;;;5093482;28;19920;-66
2023/01/22 09:15:58;;;;;;;;;;;5.90;99.90;;;;;;5061037;28;19987;-64
2023/01/22 09:18:24;;;;;;;;;;;5.90;99.90;;;;;;5094595;28;20045;-64
2023/01/22 09:20:50;;;;;;;;;;;5.90;99.90;;;;;;5110127;28;19912;-66
2023/01/22 09:23:16;;;;;;;;;;;6.00;99.90;;;;;;5093903;28;19999;-67
2023/01/22 09:25:41;;;;;;;;;;;5.90;99.90;;;;;;5087020;28;20015;-64
2023/01/22 09:28:08;;;;;;;;;;;5.90;99.90;;;;;;5071320;28;19916;-66
2023/01/22 09:30:34;;;;;;;;;;;5.90;99.90;;;;;;5086010;28;20065;-66
2023/01/22 09:33:00;;;;;;;;;;;5.80;99.90;;;;;;5076166;28;19993;-66
2023/01/22 09:35:26;;;;;;;;;;;5.80;99.90;;;;;;5098533;28;20093;-66
2023/01/22 09:37:52;;;;;;;;;;;5.80;99.90;;;;;;5091001;28;20385;-67
2023/01/22 09:40:40;;;;;;;;;;;5.80;99.90;;;;;;5070724;28;19943;-66
2023/01/22 09:43:13;;;;;;;;;;;5.80;99.90;;;;;;5053294;28;19912;-66
2023/01/22 09:45:39;;;;;;;;;;;5.80;99.90;;;;;;5065326;28;19955;-67
2023/01/22 09:48:08;;;;;;;;;;;5.70;99.90;;;;;;5095662;28;19919;-67
2023/01/22 09:50:34;;;;;;;;;;;5.70;99.90;;;;;;5082882;28;19916;-67
2023/01/22 09:53:05;;;;;;;;;;;5.70;99.90;;;;;;5087084;28;20406;-66
2023/01/22 09:55:34;;;;;;;;;;;5.80;99.90;;;;;;5080746;28;19931;-67
2023/01/22 09:58:01;;;;;;;;;;;5.80;99.90;;;;;;5085850;28;20383;-66
2023/01/22 10:00:33;;;;;;;;;;;5.80;99.90;;;;;;5094479;28;20583;-67
2023/01/22 10:03:01;;;;;;;;;;;5.80;99.90;;;;;;5072946;28;19922;-66
2023/01/22 10:05:38;;;;;;;;;;;5.70;99.90;;;;;;5076957;28;20381;-67
2023/01/22 10:08:06;;;;;;;;;;;5.70;99.90;;;;;;5091438;28;19925;-65
2023/01/22 10:10:32;;;;;;;;;;;5.70;99.90;;;;;;5106511;28;20015;-65
2023/01/22 10:13:01;;;;;;;;;;;5.70;99.90;;;;;;5074772;28;20340;-67
2023/01/22 10:15:26;;;;;;;;;;;5.60;99.90;;;;;;5083043;28;19930;-64
2023/01/22 10:17:55;;;;;;;;;;;5.50;99.90;;;;;;5092368;28;19927;-66
2023/01/22 10:20:21;;;;;;;;;;;5.50;99.90;;;;;;5088546;28;19919;-65
2023/01/22 10:22:47;;;;;;;;;;;5.50;99.90;;;;;;5068572;28;20357;-65
2023/01/22 10:25:14;;;;;;;;;;;5.50;99.90;;;;;;5070383;28;19912;-66
2023/01/22 10:27:40;;;;;;;;;;;5.50;99.90;;;;;;5091996;28;19919;-64
2023/01/22 10:30:22;;;;;;;;;;;5.60;99.90;;;;;;5088881;28;19919;-67
2023/01/22 10:32:58;;;;;;;;;;;5.60;99.90;;;;;;5084503;28;20431;-68
2023/01/22 10:35:23;;;;;;;;;;;5.50;99.90;;;;;;5098149;28;19957;-67
2023/01/22 10:37:53;;;;;;;;;;;5.50;99.90;;;;;;5095221;28;19916;-65
2023/01/22 10:40:23;;;;;;;;;;;5.50;99.90;;;;;;5110442;28;19907;-65
2023/01/22 10:43:07;;;;;;;;;;;5.60;99.90;;;;;;5095617;28;20296;-66
2023/01/22 10:45:33;;;;;;;;;;;5.60;99.90;;;;;;5075254;28;19915;-68
2023/01/22 10:48:05;;;;;;;;;;;5.60;99.90;;;;;;5073969;28;20400;-65
2023/01/22 10:50:31;;;;;;;;;;;5.70;99.90;;;;;;5094503;28;19916;-65
2023/01/22 10:52:57;;;;;;;;;;;5.80;99.90;;;;;;5092723;28;19968;-67
2023/01/22 10:55:25;;;;;;;;;;;5.90;99.90;;;;;;5094138;28;19908;-68
2023/01/22 10:58:13;;;;;;;;;;;6.00;99.90;;;;;;5071169;28;19912;-66
2023/01/22 11:00:39;;;;;;;;;;;6.00;99.90;;;;;;5081486;28;19944;-65
2023/01/22 11:03:29;;;;;;;;;;;6.10;99.90;;;;;;5091725;28;20298;-66
2023/01/22 11:06:00;;;;;;;;;;;6.20;99.90;;;;;;5084088;28;19920;-66
2023/01/22 11:08:29;;;;;;;;;;;6.30;99.90;;;;;;5096218;28;20012;-65
2023/01/22 11:10:55;;;;;;;;;;;6.30;99.90;;;;;;5094998;28;19916;-65
2023/01/22 11:13:32;;;;;;;;;;;6.30;99.90;;;;;;5093320;28;20522;-66
2023/01/22 11:16:04;;;;;;;;;;;6.40;99.90;;;;;;5098131;28;19912;-67
2023/01/22 11:18:32;;;;;;;;;;;6.50;99.90;;;;;;5086707;28;19920;-67
2023/01/22 11:20:59;;;;;;;;;;;6.60;99.90;;;;;;5080187;28;19923;-67
2023/01/22 11:23:43;;;;;;;;;;;6.70;99.90;;;;;;5089430;28;20282;-66
2023/01/22 11:26:15;;;;;;;;;;;6.90;99.90;;;;;;5106667;28;19918;-67
2023/01/22 11:28:45;;;;;;;;;;;7.10;99.90;;;;;;5090474;28;20408;-65
2023/01/22 11:31:11;;;;;;;;;;;7.20;99.90;;;;;;5086457;28;20500;-65
2023/01/22 11:33:48;;;;;;;;;;;7.10;99.90;;;;;;5080421;28;20003;-67
2023/01/22 11:36:23;;;;;;;;;;;7.00;99.90;;;;;;5070991;28;20378;-68
2023/01/22 11:38:55;;;;;;;;;;;7.00;99.90;;;;;;5086955;28;19916;-66
2023/01/22 11:41:26;;;;;;;;;;;7.00;99.90;;;;;;5092087;28;20340;-65
2023/01/22 11:43:58;;;;;;;;;;;7.10;99.90;;;;;;5111148;28;20261;-66
2023/01/22 11:46:27;;;;;;;;;;;7.20;99.90;;;;;;5088412;28;20270;-65
2023/01/22 11:49:01;;;;;;;;;;;7.30;99.90;;;;;;5089618;28;20495;-69
2023/01/22 11:51:27;;;;;;;;;;;7.20;99.90;;;;;;5083159;28;19926;-67
2023/01/22 11:53:59;;;;;;;;;;;7.20;99.90;;;;;;5085550;28;19943;-67
2023/01/22 11:56:34;;;;;;;;;;;7.10;99.90;;;;;;5077702;28;20342;-66
2023/01/22 11:59:11;;;;;;;;;;;7.30;99.90;;;;;;5091915;28;19912;-68
2023/01/22 12:01:52;;;;;;;;;;;7.30;99.90;;;;;;5077772;28;19915;-66
2023/01/22 12:04:20;;;;;;;;;;;7.40;99.90;;;;;;5094801;28;19918;-62
2023/01/22 12:06:46;;;;;;;;;;;7.30;99.90;;;;;;5107925;28;19968;-64
2023/01/22 12:09:15;;;;;;;;;;;7.30;99.90;;;;;;5087632;28;19946;-64
2023/01/22 12:11:46;;;;;;;;;;;7.40;99.90;;;;;;5076945;28;19942;-62
2023/01/22 12:14:27;;;;;;;;;;;7.30;99.90;;;;;;5076437;28;19912;-65
2023/01/22 12:17:02;;;;;;;;;;;7.40;99.90;;;;;;5088480;28;19919;-62
2023/01/22 12:19:46;;;;;;;;;;;7.20;99.90;;;;;;5103419;28;19981;-63
2023/01/22 12:22:30;;;;;;;;;;;7.20;99.90;;;;;;5102955;28;20377;-63
2023/01/22 12:25:14;;;;;;;;;;;7.40;99.90;;;;;;5085109;28;20378;-63
2023/01/22 12:28:06;;;;;;;;;;;7.50;99.90;;;;;;5097170;28;19924;-64
2023/01/22 12:30:50;;;;;;;;;;;7.40;99.90;;;;;;5079349;28;19923;-62
2023/01/22 12:33:17;;;;;;;;;;;7.40;99.90;;;;;;5088637;28;20015;-63
2023/01/22 12:35:43;;;;;;;;;;;7.40;99.90;;;;;;5094700;28;20676;-64
2023/01/22 12:38:18;;;;;;;;;;;7.50;99.90;;;;;;5087906;28;19916;-63
2023/01/22 12:41:01;;;;;;;;;;;7.50;99.90;;;;;;5106963;28;19992;-63
2023/01/22 12:43:36;;;;;;;;;;;7.40;99.90;;;;;;5086789;28;19978;-63
2023/01/22 12:46:17;;;;;;;;;;;7.40;99.90;;;;;;5070829;28;20313;-61
2023/01/22 12:49:01;;;;;;;;;;;7.40;99.90;;;;;;5091750;28;19919;-62
2023/01/22 12:51:35;;;;;;;;;;;7.50;99.90;;;;;;5097302;28;20361;-64
2023/01/22 12:54:24;;;;;;;;;;;7.60;99.90;;;;;;5095761;28;19911;-64
2023/01/22 12:56:52;;;;;;;;;;;7.60;99.90;;;;;;5057071;28;19958;-64
2023/01/22 12:59:37;;;;;;;;;;;7.50;99.90;;;;;;5096424;28;19964;-60
2023/01/22 13:02:04;;;;;;;;;;;7.60;99.90;;;;;;5089141;28;19923;-61
2023/01/22 13:04:31;;;;;;;;;;;8.00;99.90;;;;;;5088361;28;20090;-61
2023/01/22 13:07:18;;;;;;;;;;;8.00;99.90;;;;;;5068934;28;19920;-60
2023/01/22 13:09:44;;;;;;;;;;;8.00;99.90;;;;;;5071645;28;20301;-60
2023/01/22 13:12:23;;;;;;;;;;;8.00;99.90;;;;;;5078769;28;19916;-60
2023/01/22 13:14:49;;;;;;;;;;;7.90;99.90;;;;;;5066704;28;19966;-59
2023/01/22 13:17:19;;;;;;;;;;;8.00;99.90;;;;;;5096105;28;19911;-61
2023/01/22 13:19:46;;;;;;;;;;;8.00;99.90;;;;;;5094261;28;19916;-65
2023/01/22 13:22:18;;;;;;;;;;;7.90;99.90;;;;;;5058953;28;19912;-59
2023/01/22 13:24:51;;;;;;;;;;;7.90;99.90;;;;;;5096576;28;19937;-62
2023/01/22 13:27:30;;;;;;;;;;;7.80;99.90;;;;;;5096609;28;20322;-60
2023/01/22 13:30:25;;;;;;;;;;;7.80;99.90;;;;;;5103206;28;19920;-58
2023/01/22 13:33:23;;;;;;;;;;;7.70;99.90;;;;;;5054097;28;19928;-59
2023/01/22 13:36:01;;;;;;;;;;;7.80;99.90;;;;;;5042994;28;19966;-57
2023/01/22 13:38:33;;;;;;;;;;;7.70;99.90;;;;;;5077905;28;19919;-59
2023/01/22 13:41:03;;;;;;;;;;;7.60;99.90;;;;;;5092370;28;20622;-59
2023/01/22 13:43:29;;;;;;;;;;;7.50;99.90;;;;;;5092316;28;19920;-60
2023/01/22 13:45:55;;;;;;;;;;;7.50;99.90;;;;;;5091140;28;20214;-60
2023/01/22 13:48:23;;;;;;;;;;;7.40;99.90;;;;;;5094737;28;20378;-60
2023/01/22 13:51:04;;;;;;;;;;;7.40;99.90;;;;;;5070570;28;19924;-60
2023/01/22 13:53:30;;;;;;;;;;;7.30;99.90;;;;;;5074094;28;20365;-60
2023/01/22 13:55:56;;;;;;;;;;;7.30;99.90;;;;;;5088960;28;19912;-57
2023/01/22 13:58:32;;;;;;;;;;;7.20;99.90;;;;;;5076754;28;20302;-59
2023/01/22 14:00:58;;;;;;;;;;;7.10;99.90;;;;;;5096559;28;19947;-60
2023/01/22 14:03:25;;;;;;;;;;;7.10;99.90;;;;;;5102680;28;20013;-58
2023/01/22 14:06:01;;;;;;;;;;;7.00;99.90;;;;;;5085092;28;19970;-61
2023/01/22 14:08:26;;;;;;;;;;;7.00;99.90;;;;;;5072414;28;19927;-58
2023/01/22 14:10:56;;;;;;;;;;;7.00;99.90;;;;;;5064074;28;19916;-64
2023/01/22 14:13:21;;;;;;;;;;;6.80;99.90;;;;;;5083637;28;20384;-65
2023/01/22 14:15:55;;;;;;;;;;;6.60;99.90;;;;;;5098622;28;20003;-64
2023/01/22 14:18:21;;;;;;;;;;;6.50;99.90;;;;;;5092810;28;20290;-65
2023/01/22 14:20:47;;;;;;;;;;;6.40;99.90;;;;;;5093568;28;19992;-63
2023/01/22 14:23:13;;;;;;;;;;;6.40;99.90;;;;;;5065064;28;19987;-62
2023/01/22 14:25:41;;;;;;;;;;;6.40;99.90;;;;;;5087110;28;20442;-63
2023/01/22 14:28:07;;;;;;;;;;;6.30;99.90;;;;;;5075190;28;19912;-64
2023/01/22 14:30:33;;;;;;;;;;;6.40;99.90;;;;;;5089926;28;20409;-64
2023/01/22 14:32:58;;;;;;;;;;;6.40;99.90;;;;;;5091052;28;19966;-62
2023/01/22 14:35:25;;;;;;;;;;;6.30;99.90;;;;;;5084589;28;20005;-62
2023/01/22 14:37:51;;;;;;;;;;;6.30;99.90;;;;;;5065991;28;19913;-61
2023/01/22 14:40:17;;;;;;;;;;;6.20;99.90;;;;;;5083640;28;19965;-64
2023/01/22 14:42:44;;;;;;;;;;;6.20;99.90;;;;;;5064012;28;19916;-62
2023/01/22 14:45:10;;;;;;;;;;;6.10;99.90;;;;;;5082440;28;19919;-63